createdAt,value
2023-01-05T00:00:55.814Z,12.00
2023-01-05T00:04:56.877Z,12.30
2023-01-05T00:08:58.927Z,12.10
2023-01-05T00:13:18.486Z,12.10
2023-01-05T00:17:40.779Z,11.80
2023-01-05T00:22:00.802Z,11.80
2023-01-05T00:26:01.920Z,12.50
2023-01-05T00:30:05.216Z,12.10
2023-01-05T00:34:06.434Z,12.00
2023-01-05T00:38:08.702Z,11.80
2023-01-05T00:42:09.807Z,11.90
2023-01-05T00:46:11.014Z,12.20
2023-01-05T00:50:14.890Z,12.10
2023-01-05T00:54:16.023Z,11.90
2023-01-05T00:58:17.008Z,11.90
2023-01-05T01:02:18.450Z,12.00
2023-01-05T01:06:22.129Z,12.10
2023-01-05T01:10:25.050Z,11.70
2023-01-05T01:14:26.953Z,12.10
2023-01-05T01:18:28.040Z,12.40
2023-01-05T01:22:29.021Z,11.90
2023-01-05T01:26:30.162Z,12.30
2023-01-05T01:30:31.437Z,12.20
2023-01-05T01:34:32.581Z,12.40
2023-01-05T01:38:33.905Z,12.60
2023-01-05T01:42:35.115Z,12.90
2023-01-05T01:46:36.217Z,13.00
2023-01-05T01:50:49.805Z,12.80
2023-01-05T01:54:52.416Z,12.60
2023-01-05T01:58:53.674Z,12.70
2023-01-05T02:02:55.745Z,12.40
2023-01-05T02:06:57.627Z,12.30
2023-01-05T02:11:05.505Z,12.50
2023-01-05T02:15:27.262Z,12.50
2023-01-05T02:20:05.981Z,12.70
2023-01-05T02:24:25.682Z,12.50
2023-01-05T02:28:53.632Z,12.50
2023-01-05T02:33:35.218Z,12.70
2023-01-05T02:37:43.204Z,12.80
2023-01-05T02:41:53.976Z,12.40
2023-01-05T02:45:55.826Z,11.50
2023-01-05T02:50:15.994Z,11.50
2023-01-05T02:54:30.097Z,11.70
2023-01-05T02:58:35.031Z,11.20
2023-01-05T03:02:37.415Z,10.70
2023-01-05T03:06:44.531Z,10.80
2023-01-05T03:11:10.699Z,11.10
2023-01-05T03:15:21.189Z,11.20
2023-01-05T03:19:36.087Z,10.70
2023-01-05T03:23:55.870Z,11.10
2023-01-05T03:28:16.041Z,10.70
2023-01-05T03:32:41.757Z,10.90
2023-01-05T03:36:49.567Z,11.30
2023-01-05T03:40:53.195Z,11.30
2023-01-05T03:44:54.295Z,11.50
2023-01-05T03:48:55.526Z,11.00
2023-01-05T03:52:56.608Z,11.30
2023-01-05T03:56:57.575Z,11.00
2023-01-05T04:00:58.772Z,11.50
2023-01-05T04:04:59.741Z,10.90
2023-01-05T04:09:00.900Z,11.30
2023-01-05T04:13:02.366Z,11.50
2023-01-05T04:17:03.404Z,11.30
2023-01-05T04:21:05.561Z,11.30
2023-01-05T04:25:07.600Z,10.90
2023-01-05T04:29:11.659Z,11.00
2023-01-05T04:33:12.806Z,11.20
2023-01-05T04:37:13.939Z,11.20
2023-01-05T04:41:15.074Z,11.60
2023-01-05T04:45:16.469Z,12.50
2023-01-05T04:49:17.439Z,11.60
2023-01-05T04:53:18.447Z,11.40
2023-01-05T04:57:19.420Z,11.10
2023-01-05T05:01:20.856Z,11.40
2023-01-05T05:05:22.127Z,10.90
2023-01-05T05:09:23.297Z,10.90
2023-01-05T05:13:24.294Z,12.00
2023-01-05T05:17:25.579Z,12.10
2023-01-05T05:21:26.726Z,12.30
2023-01-05T05:25:27.688Z,12.60
2023-01-05T05:29:28.854Z,11.50
2023-01-05T05:33:29.871Z,11.70
2023-01-05T05:37:31.142Z,12.30
2023-01-05T05:41:32.449Z,11.60
2023-01-05T05:45:33.573Z,11.40
2023-01-05T05:49:34.534Z,11.40
2023-01-05T05:53:35.564Z,11.10
2023-01-05T05:57:36.592Z,11.40
2023-01-05T06:01:37.815Z,11.00
2023-01-05T06:05:39.022Z,11.50
2023-01-05T06:09:40.067Z,11.20
2023-01-05T06:13:41.693Z,11.80
2023-01-05T06:17:42.905Z,12.20
2023-01-05T06:21:44.174Z,11.30
2023-01-05T06:25:45.211Z,11.60
2023-01-05T06:29:46.299Z,11.80
2023-01-05T06:33:47.347Z,12.80
2023-01-05T06:37:48.428Z,11.70
2023-01-05T06:41:49.403Z,12.50
2023-01-05T06:45:50.518Z,12.40
2023-01-05T06:49:51.452Z,11.80
2023-01-05T06:53:52.581Z,11.60
2023-01-05T06:58:00.241Z,11.70
2023-01-05T07:01:56.628Z,10.50
2023-01-05T07:05:57.657Z,11.60
2023-01-05T07:09:59.239Z,10.80
2023-01-05T07:14:00.268Z,10.90
2023-01-05T07:18:01.502Z,10.80
2023-01-05T07:22:02.715Z,10.40
2023-01-05T07:26:05.707Z,10.50
2023-01-05T07:30:07.991Z,11.70
2023-01-05T07:34:09.681Z,11.50
2023-01-05T07:38:10.996Z,10.50
2023-01-05T07:42:12.511Z,10.50
2023-01-05T07:46:13.611Z,10.10
2023-01-05T07:50:14.861Z,10.30
2023-01-05T07:54:16.000Z,10.10
2023-01-05T07:58:16.972Z,10.70
2023-01-05T08:02:18.315Z,10.90
2023-01-05T08:06:20.455Z,10.60
2023-01-05T08:10:30.453Z,10.70
2023-01-05T08:14:31.593Z,11.60
2023-01-05T08:18:32.778Z,11.10
2023-01-05T08:22:35.786Z,11.20
2023-01-05T08:26:37.010Z,11.10
2023-01-05T08:30:38.383Z,11.40
2023-01-05T08:34:39.395Z,10.70
2023-01-05T08:38:42.865Z,11.30
2023-01-05T08:42:45.879Z,10.80
2023-01-05T08:46:47.026Z,10.80
2023-01-05T08:50:47.998Z,10.80
2023-01-05T08:54:49.731Z,10.40
2023-01-05T08:58:52.126Z,10.20
2023-01-05T09:02:53.288Z,10.30
2023-01-05T09:06:55.538Z,10.90
2023-01-05T09:11:08.611Z,10.70
2023-01-05T09:15:10.140Z,11.20
2023-01-05T09:19:11.557Z,11.20
2023-01-05T09:23:12.525Z,11.40
2023-01-05T09:27:13.877Z,10.70
2023-01-05T09:31:18.456Z,10.40
2023-01-05T09:35:19.385Z,10.70
2023-01-05T09:39:20.350Z,11.50
2023-01-05T09:43:28.350Z,11.60
2023-01-05T09:47:33.127Z,10.90
2023-01-05T09:51:35.288Z,11.00
2023-01-05T09:55:37.261Z,10.90
2023-01-05T09:59:47.730Z,11.50
2023-01-05T10:04:05.708Z,11.40
2023-01-05T10:08:20.304Z,11.30
2023-01-05T10:12:43.901Z,11.50
2023-01-05T10:16:46.017Z,11.40
2023-01-05T10:20:59.505Z,11.20
2023-01-05T10:25:04.616Z,11.70
2023-01-05T10:29:13.866Z,11.60
2023-01-05T10:33:40.266Z,11.90
2023-01-05T10:37:41.486Z,11.40
2023-01-05T10:41:49.448Z,11.30
2023-01-05T10:46:19.749Z,10.90
2023-01-05T10:49:53.870Z,11.50
2023-01-05T10:53:54.987Z,10.90
2023-01-05T10:57:56.011Z,11.50
2023-01-05T11:01:57.336Z,11.00
2023-01-05T11:05:59.666Z,11.70
2023-01-05T11:10:01.049Z,11.50
2023-01-05T11:14:02.848Z,12.30
2023-01-05T11:18:04.118Z,11.80
2023-01-05T11:22:07.168Z,11.30
2023-01-05T11:26:20.987Z,11.10
2023-01-05T11:30:24.634Z,12.40
2023-01-05T11:34:46.352Z,12.60
2023-01-05T11:38:54.329Z,11.60
2023-01-05T11:42:55.664Z,12.30
2023-01-05T11:46:56.896Z,13.00
2023-01-05T11:50:58.037Z,12.40
2023-01-05T11:54:59.209Z,12.30
2023-01-05T11:59:00.400Z,11.90
2023-01-05T12:03:23.818Z,12.00
2023-01-05T12:07:31.620Z,11.60
2023-01-05T12:11:48.713Z,11.80
2023-01-05T12:16:01.848Z,12.30
2023-01-05T12:20:08.601Z,12.60
2023-01-05T12:24:25.822Z,12.60
2023-01-05T12:28:41.651Z,11.60
2023-01-05T12:37:27.506Z,13.20
2023-01-05T12:41:38.050Z,12.90
2023-01-05T12:45:48.949Z,13.20
2023-01-05T12:49:56.898Z,13.60
2023-01-05T12:54:01.889Z,13.40
2023-01-05T12:58:06.777Z,13.50
2023-01-05T13:02:37.321Z,12.50
2023-01-05T13:06:42.066Z,12.80
2023-01-05T13:10:47.107Z,12.60
2023-01-05T13:15:07.694Z,12.10
2023-01-05T13:19:30.841Z,12.10
2023-01-05T13:23:35.663Z,12.30
2023-01-05T13:27:37.056Z,12.50
2023-01-05T13:31:48.089Z,12.80
2023-01-05T13:36:09.681Z,12.40
2023-01-05T13:40:30.510Z,13.10
2023-01-05T13:44:41.262Z,12.50
2023-01-05T13:49:14.890Z,13.40
2023-01-05T13:53:19.626Z,13.00
2023-01-05T13:57:23.359Z,12.90
2023-01-05T14:01:39.879Z,13.80
2023-01-05T14:05:53.835Z,13.60
2023-01-05T14:09:56.457Z,13.90
2023-01-05T14:14:08.024Z,13.70
2023-01-05T14:18:12.062Z,12.80
2023-01-05T14:22:23.010Z,13.10
2023-01-05T14:26:53.184Z,12.10
2023-01-05T14:31:00.863Z,12.50
2023-01-05T14:35:24.087Z,13.00
2023-01-05T14:39:31.621Z,12.80
2023-01-05T14:43:35.208Z,13.00
2023-01-05T14:47:52.184Z,13.00
2023-01-05T14:51:58.710Z,13.30
2023-01-05T14:56:03.701Z,13.70
2023-01-05T15:00:14.745Z,14.40
2023-01-05T15:04:19.579Z,14.20
2023-01-05T15:08:30.246Z,14.20
2023-01-05T15:12:52.436Z,14.80
2023-01-05T15:17:17.780Z,14.50
2023-01-05T15:21:51.473Z,14.60
2023-01-05T15:26:16.461Z,14.30
2023-01-05T15:30:38.386Z,13.50
2023-01-05T15:34:57.965Z,13.70
2023-01-05T15:38:58.959Z,13.20
2023-01-05T15:43:03.080Z,13.20
2023-01-05T15:47:06.491Z,13.00
2023-01-05T15:51:10.134Z,13.00
2023-01-05T15:55:16.407Z,12.40
2023-01-05T15:59:26.889Z,12.80
2023-01-05T16:03:31.059Z,12.30
2023-01-05T16:07:32.076Z,13.10
2023-01-05T16:11:37.324Z,13.00
2023-01-05T16:15:40.708Z,12.60
2023-01-05T16:19:58.072Z,13.10
2023-01-05T16:24:18.044Z,12.40
2023-01-05T16:28:21.420Z,12.70
2023-01-05T16:32:36.139Z,13.20
2023-01-05T16:36:37.141Z,12.70
2023-01-05T16:41:12.124Z,12.60
2023-01-05T16:45:23.025Z,12.90
2023-01-05T16:49:37.328Z,12.80
2023-01-05T16:53:44.774Z,12.20
2023-01-05T16:57:45.725Z,12.00
2023-01-05T17:01:47.050Z,11.50
2023-01-05T17:05:52.165Z,11.60
2023-01-05T17:09:53.760Z,11.30
2023-01-05T17:13:55.157Z,12.00
2023-01-05T17:17:56.349Z,12.30
2023-01-05T17:22:06.941Z,11.90
2023-01-05T17:26:11.074Z,11.10
2023-01-05T17:30:20.501Z,10.80
2023-01-05T17:34:22.418Z,11.20
2023-01-05T17:38:23.783Z,11.60
2023-01-05T17:42:43.406Z,11.50
2023-01-05T17:46:47.207Z,11.60
2023-01-05T17:50:49.305Z,11.90
2023-01-05T17:54:51.600Z,12.00
2023-01-05T17:58:52.823Z,12.50
2023-01-05T18:02:55.069Z,11.90
2023-01-05T18:06:56.040Z,12.00
2023-01-05T18:11:02.710Z,12.20
2023-01-05T18:15:04.864Z,11.40
2023-01-05T18:19:06.048Z,12.20
2023-01-05T18:23:08.288Z,12.70
2023-01-05T18:27:10.315Z,12.80
2023-01-05T18:31:15.733Z,12.70
2023-01-05T18:35:17.422Z,13.10
2023-01-05T18:39:18.601Z,13.20
2023-01-05T18:43:19.624Z,13.30
2023-01-05T18:47:20.737Z,13.80
2023-01-05T18:51:21.718Z,13.60
2023-01-05T18:55:22.897Z,13.90
2023-01-05T18:59:24.210Z,14.00
2023-01-05T19:03:25.195Z,13.90
2023-01-05T19:07:26.323Z,13.50
2023-01-05T19:11:27.625Z,13.50
2023-01-05T19:15:28.614Z,13.30
2023-01-05T19:19:29.842Z,13.60
2023-01-05T19:23:30.796Z,13.30
2023-01-05T19:27:31.804Z,13.40
2023-01-05T19:31:33.959Z,13.70
2023-01-05T19:35:35.142Z,13.40
2023-01-05T19:39:36.425Z,12.10
2023-01-05T19:43:39.907Z,12.50
2023-01-05T19:47:42.567Z,12.90
2023-01-05T19:51:44.689Z,12.30
2023-01-05T19:55:45.733Z,12.40
2023-01-05T19:59:46.832Z,11.70
2023-01-05T20:03:48.910Z,11.30
2023-01-05T20:07:50.069Z,11.80
2023-01-05T20:12:09.275Z,12.10
2023-01-05T20:16:05.974Z,11.40
2023-01-05T20:20:08.147Z,12.10
2023-01-05T20:24:16.994Z,12.00
2023-01-05T20:28:18.200Z,11.40
2023-01-05T20:32:22.660Z,12.10
2023-01-05T20:36:25.875Z,11.80
2023-01-05T20:40:28.460Z,11.80
2023-01-05T20:44:31.704Z,11.20
2023-01-05T20:48:34.671Z,11.60
2023-01-05T20:52:35.662Z,11.60
2023-01-05T20:56:39.486Z,11.60
2023-01-05T21:01:10.127Z,11.60
2023-01-05T21:04:43.794Z,12.30
2023-01-05T21:08:48.034Z,12.50
2023-01-05T21:12:49.249Z,12.30
2023-01-05T21:16:52.814Z,12.10
2023-01-05T21:20:54.229Z,12.00
2023-01-05T21:24:55.354Z,11.90
2023-01-05T21:28:56.614Z,12.80
2023-01-05T21:32:57.608Z,12.90
2023-01-05T21:36:58.629Z,12.80
2023-01-05T21:41:02.936Z,12.80
2023-01-05T21:45:04.720Z,13.20
2023-01-05T21:49:07.665Z,13.20
2023-01-05T21:53:33.320Z,12.90
2023-01-05T21:57:34.614Z,13.50
2023-01-05T22:01:38.222Z,13.20
2023-01-05T22:05:39.409Z,13.20
2023-01-05T22:09:40.399Z,13.10
2023-01-05T22:13:41.430Z,12.90
2023-01-05T22:17:43.217Z,13.50
2023-01-05T22:21:45.023Z,14.00
2023-01-05T22:25:46.032Z,13.60
2023-01-05T22:29:47.289Z,14.20
2023-01-05T22:33:51.029Z,14.00
2023-01-05T22:37:52.777Z,14.10
2023-01-05T22:41:53.750Z,13.90
2023-01-05T22:46:00.933Z,14.00
2023-01-05T22:50:03.323Z,14.00
2023-01-05T22:54:04.804Z,13.60
2023-01-05T22:58:05.846Z,13.40
2023-01-05T23:02:07.323Z,13.60
2023-01-05T23:06:08.790Z,13.50
2023-01-05T23:10:10.258Z,13.30
2023-01-05T23:14:11.874Z,13.90
2023-01-05T23:18:12.907Z,14.20
2023-01-05T23:22:14.169Z,14.40
2023-01-05T23:26:15.901Z,13.40
2023-01-05T23:30:17.041Z,13.70
2023-01-05T23:34:18.074Z,13.80
2023-01-05T23:38:20.272Z,14.00
2023-01-05T23:42:40.169Z,14.50
2023-01-05T23:46:41.288Z,13.80
2023-01-05T23:50:47.465Z,13.20
2023-01-05T23:54:48.465Z,14.10
2023-01-05T23:58:56.406Z,13.60
